Time;durP1;ratioP1;P1;durP2;ratioP2;P2;SDS_P1;SDS_P2;PMS_P1;PMS_P2;Temp;Humidity;BMP_temperature;BMP_pressure;BME280_temperature;BME280_humidity;BME280_pressure;Samples;Min_cycle;Max_cycle;Signal;HPM_P1;HPM_P2
2022/10/25 00:00:16;;;;;;;3.15;1.58;;;10.20;99.90;;;;;;5034801;28;20096;-82
2022/10/25 00:02:42;;;;;;;4.30;1.65;;;10.20;99.90;;;;;;5034655;28;20446;-82
2022/10/25 00:05:13;;;;;;;3.40;1.50;;;10.20;99.90;;;;;;5034821;28;20022;-83
2022/10/25 00:07:39;;;;;;;5.13;1.83;;;10.20;99.90;;;;;;5032902;28;20045;-85
2022/10/25 00:10:05;;;;;;;4.97;1.70;;;10.20;99.90;;;;;;5030341;28;20052;-85
2022/10/25 00:12:30;;;;;;;3.72;1.67;;;10.20;99.90;;;;;;5031439;28;20116;-85
2022/10/25 00:15:00;;;;;;;4.10;1.80;;;10.10;99.90;;;;;;5030902;28;20441;-85
2022/10/25 00:17:25;;;;;;;3.97;1.92;;;10.10;99.90;;;;;;5031322;28;20076;-85
2022/10/25 00:19:51;;;;;;;6.10;1.90;;;10.10;99.90;;;;;;5031418;28;20097;-85
2022/10/25 00:22:16;;;;;;;3.38;1.67;;;10.00;99.90;;;;;;5031459;28;20382;-85
2022/10/25 00:24:42;;;;;;;5.75;1.95;;;10.00;99.90;;;;;;5031396;28;20111;-84
2022/10/25 00:27:07;;;;;;;4.88;1.73;;;10.00;99.90;;;;;;5031378;28;20108;-85
2022/10/25 00:29:33;;;;;;;5.78;1.77;;;10.00;99.90;;;;;;5031334;28;20045;-85
2022/10/25 00:31:59;;;;;;;5.70;1.50;;;9.90;99.90;;;;;;5022972;28;20041;-85
2022/10/25 00:34:24;;;;;;;4.97;1.90;;;10.00;99.90;;;;;;5011165;28;20076;-85
2022/10/25 00:36:50;;;;;;;2.92;1.48;;;10.00;99.90;;;;;;5011077;28;20038;-85
2022/10/25 00:39:15;;;;;;;6.40;2.15;;;9.90;99.90;;;;;;5011539;28;20079;-85
2022/10/25 00:41:41;;;;;;;3.20;1.70;;;9.90;99.90;;;;;;5011544;28;20048;-85
2022/10/25 00:44:34;;;;;;;2.77;1.40;;;9.90;99.90;;;;;;5011553;28;20864;-85
2022/10/25 00:47:13;;;;;;;4.18;1.85;;;10.00;99.90;;;;;;5011405;28;20110;-85
2022/10/25 00:49:40;;;;;;;3.83;1.30;;;10.00;99.90;;;;;;5011222;28;20036;-85
2022/10/25 00:52:07;;;;;;;4.30;1.70;;;10.00;99.90;;;;;;5011213;28;20022;-85
2022/10/25 00:54:40;;;;;;;2.10;1.63;;;10.00;99.90;;;;;;5011029;28;20034;-85
2022/10/25 00:57:14;;;;;;;2.53;1.50;;;10.00;99.90;;;;;;5023339;28;20018;-85
2022/10/25 00:59:41;;;;;;;3.13;1.52;;;10.00;99.90;;;;;;5030971;28;20033;-85
2022/10/25 01:02:07;;;;;;;2.90;1.58;;;9.90;99.90;;;;;;5029092;28;20424;-84
2022/10/25 01:04:33;;;;;;;2.78;1.30;;;10.00;99.90;;;;;;5030044;28;20104;-85
2022/10/25 01:07:00;;;;;;;6.40;1.50;;;10.00;99.90;;;;;;5030562;28;20440;-85
2022/10/25 01:09:29;;;;;;;5.97;1.88;;;10.00;99.90;;;;;;5030233;28;20110;-85
2022/10/25 01:11:55;;;;;;;2.10;1.43;;;10.00;99.90;;;;;;5030328;28;20025;-85
2022/10/25 01:14:22;;;;;;;3.57;1.50;;;10.00;99.90;;;;;;5030294;28;20021;-85
2022/10/25 01:17:25;;;;;;;3.30;1.45;;;10.00;99.90;;;;;;5030272;28;20035;-84
2022/10/25 01:20:12;;;;;;;4.35;1.92;;;10.00;99.90;;;;;;5028809;28;20041;-85
2022/10/25 01:22:56;;;;;;;4.80;1.70;;;10.00;99.90;;;;;;5030104;28;20458;-85
2022/10/25 01:25:27;;;;;;;2.37;1.50;;;9.90;99.90;;;;;;5030528;28;20025;-84
2022/10/25 01:27:59;;;;;;;5.43;1.80;;;9.90;99.90;;;;;;5030561;28;20102;-85
2022/10/25 01:30:30;;;;;;;2.03;1.27;;;9.90;99.90;;;;;;5026302;28;20021;-84
2022/10/25 01:33:11;;;;;;;1.93;1.40;;;9.90;99.90;;;;;;5019118;28;20060;-85
2022/10/25 01:36:00;;;;;;;1.77;1.10;;;9.80;99.90;;;;;;5010591;28;20030;-85
2022/10/25 01:38:37;;;;;;;3.50;1.40;;;9.80;99.90;;;;;;5009894;28;20068;-85
2022/10/25 01:41:29;;;;;;;1.73;1.30;;;9.80;99.90;;;;;;5010050;28;20042;-84
2022/10/25 01:44:15;;;;;;;3.17;1.17;;;9.80;99.90;;;;;;5009017;28;20029;-84
2022/10/25 01:47:08;;;;;;;2.60;1.33;;;9.80;99.90;;;;;;5010797;28;20022;-85
2022/10/25 01:49:46;;;;;;;2.83;1.03;;;9.80;99.90;;;;;;5010795;28;20728;-85
2022/10/25 01:52:13;;;;;;;2.97;1.38;;;9.90;99.90;;;;;;5010333;28;20065;-84
2022/10/25 01:54:39;;;;;;;2.03;1.30;;;9.90;99.90;;;;;;5010311;28;20517;-84
2022/10/25 01:57:19;;;;;;;2.42;1.17;;;9.90;99.90;;;;;;5010615;28;20029;-85
2022/10/25 01:59:48;;;;;;;2.10;1.20;;;10.00;99.90;;;;;;5010129;28;20037;-85
2022/10/25 02:02:29;;;;;;;3.90;1.30;;;10.00;99.90;;;;;;5010372;28;20026;-85
2022/10/25 02:05:13;;;;;;;6.77;1.40;;;10.00;99.90;;;;;;5010402;28;20057;-85
2022/10/25 02:07:43;;;;;;;1.67;1.10;;;10.00;99.90;;;;;;5010156;28;20033;-85
2022/10/25 02:10:23;;;;;;;2.57;1.30;;;10.10;99.90;;;;;;5010181;28;20018;-84
2022/10/25 02:12:56;;;;;;;4.00;1.10;;;10.10;99.90;;;;;;5010196;28;20499;-85
2022/10/25 02:15:40;;;;;;;2.85;1.35;;;10.20;99.90;;;;;;5010246;28;20121;-84
2022/10/25 02:18:11;;;;;;;1.85;1.20;;;10.20;99.90;;;;;;5014293;28;20029;-84
2022/10/25 02:20:40;;;;;;;3.28;1.30;;;10.20;99.90;;;;;;5012773;28;20025;-84
2022/10/25 02:23:06;;;;;;;3.30;1.30;;;10.20;99.90;;;;;;5014240;28;20030;-84
2022/10/25 02:25:35;;;;;;;2.78;1.13;;;10.30;99.90;;;;;;5013864;28;20049;-85
2022/10/25 02:28:07;;;;;;;1.93;1.37;;;10.30;99.90;;;;;;5014162;28;20084;-85
2022/10/25 02:30:35;;;;;;;3.63;1.55;;;10.40;99.90;;;;;;5016510;28;20051;-85
2022/10/25 02:33:01;;;;;;;2.40;1.20;;;10.40;99.90;;;;;;5022403;28;20049;-85
2022/10/25 02:35:27;;;;;;;3.83;1.20;;;10.40;99.90;;;;;;5014063;28;20483;-85
2022/10/25 02:37:52;;;;;;;1.88;1.10;;;10.50;99.90;;;;;;5014433;28;20815;-85
2022/10/25 02:40:18;;;;;;;2.45;1.15;;;10.50;99.90;;;;;;5012907;28;20042;-85
2022/10/25 02:42:43;;;;;;;2.90;1.00;;;10.50;99.90;;;;;;5013190;28;20029;-85
2022/10/25 02:45:09;;;;;;;2.83;1.23;;;10.50;99.90;;;;;;5013491;28;20034;-85
2022/10/25 02:47:35;;;;;;;4.40;1.20;;;10.60;99.90;;;;;;5013426;28;20045;-84
2022/10/25 02:50:01;;;;;;;3.97;1.50;;;10.60;99.90;;;;;;5013276;28;20029;-84
2022/10/25 02:52:27;;;;;;;1.88;1.00;;;10.60;99.90;;;;;;5013208;28;20018;-85
2022/10/25 02:54:52;;;;;;;5.90;1.15;;;10.70;99.90;;;;;;5013298;28;20030;-84
2022/10/25 02:57:18;;;;;;;4.10;1.23;;;10.70;99.90;;;;;;5012976;28;20021;-84
2022/10/25 02:59:43;;;;;;;2.60;1.17;;;10.70;99.90;;;;;;5012833;28;20115;-84
2022/10/25 03:02:09;;;;;;;2.17;1.15;;;10.70;99.90;;;;;;5013035;28;20550;-84
2022/10/25 03:04:34;;;;;;;1.58;0.90;;;10.70;99.90;;;;;;5012904;28;20030;-84
2022/10/25 03:07:00;;;;;;;3.53;1.20;;;10.70;99.90;;;;;;5011705;28;20029;-84
2022/10/25 03:09:25;;;;;;;1.77;1.10;;;10.70;99.90;;;;;;5013070;28;20064;-84
2022/10/25 03:11:51;;;;;;;2.95;1.67;;;10.70;99.90;;;;;;5013069;28;20113;-84
2022/10/25 03:14:17;;;;;;;2.55;1.10;;;10.80;99.90;;;;;;5013081;28;20515;-84
2022/10/25 03:16:42;;;;;;;4.03;1.30;;;10.80;99.90;;;;;;5013086;28;20028;-84
2022/10/25 03:19:08;;;;;;;6.15;1.10;;;10.80;99.90;;;;;;5012514;28;20022;-84
2022/10/25 03:21:34;;;;;;;2.13;1.45;;;10.80;99.90;;;;;;5012594;28;20030;-84
2022/10/25 03:23:59;;;;;;;1.83;1.17;;;10.80;99.90;;;;;;5012821;28;20060;-84
2022/10/25 03:26:25;;;;;;;2.80;1.25;;;10.80;99.90;;;;;;5012884;28;20092;-84
2022/10/25 03:28:50;;;;;;;5.93;1.63;;;10.80;99.90;;;;;;5011587;28;20026;-84
2022/10/25 03:31:17;;;;;;;5.35;1.23;;;10.70;99.90;;;;;;5019953;28;20037;-84
2022/10/25 03:33:43;;;;;;;3.33;1.33;;;10.70;99.90;;;;;;5014863;28;20467;-84
2022/10/25 03:36:09;;;;;;;2.60;1.17;;;10.70;99.90;;;;;;5012186;28;20050;-85
2022/10/25 03:38:34;;;;;;;3.72;1.20;;;10.80;99.90;;;;;;5012508;28;20076;-84
2022/10/25 03:41:00;;;;;;;5.38;1.15;;;10.70;99.90;;;;;;5012040;28;20129;-84
2022/10/25 03:43:26;;;;;;;3.40;1.10;;;10.80;99.90;;;;;;5011191;28;20093;-84
2022/10/25 03:45:51;;;;;;;1.85;1.02;;;10.70;99.90;;;;;;5012422;28;20033;-85
2022/10/25 03:48:17;;;;;;;6.15;1.30;;;10.70;99.90;;;;;;5012232;28;20030;-84
2022/10/25 03:50:43;;;;;;;4.13;1.20;;;10.70;99.90;;;;;;5012199;28;20090;-84
2022/10/25 03:53:09;;;;;;;2.17;1.00;;;10.80;99.90;;;;;;5011840;28;20119;-84
2022/10/25 03:55:35;;;;;;;3.15;1.30;;;10.80;99.90;;;;;;5012168;28;20030;-84
2022/10/25 03:58:01;;;;;;;1.70;1.10;;;10.70;99.90;;;;;;5012338;28;20033;-85
2022/10/25 04:00:26;;;;;;;4.57;1.40;;;10.70;99.90;;;;;;5011986;28;20548;-84
2022/10/25 04:03:00;;;;;;;2.00;1.10;;;10.70;99.90;;;;;;5011859;28;20549;-85
2022/10/25 04:05:26;;;;;;;4.93;1.17;;;10.70;99.90;;;;;;5011886;28;20021;-85
2022/10/25 04:07:52;;;;;;;3.83;1.10;;;10.70;99.90;;;;;;5016675;28;20491;-84
2022/10/25 04:10:18;;;;;;;3.22;1.20;;;10.70;99.90;;;;;;5021177;28;20022;-84
2022/10/25 04:12:45;;;;;;;4.50;1.63;;;10.60;99.90;;;;;;5017515;28;20028;-84
2022/10/25 04:15:10;;;;;;;2.17;1.17;;;10.60;99.90;;;;;;5028388;28;20072;-84
2022/10/25 04:17:36;;;;;;;8.32;1.60;;;10.60;99.90;;;;;;5031764;28;20061;-83
2022/10/25 04:20:02;;;;;;;4.82;1.50;;;10.60;99.90;;;;;;5033928;28;20166;-83
2022/10/25 04:22:27;;;;;;;2.80;1.30;;;10.50;99.90;;;;;;5034855;28;20041;-83
2022/10/25 04:24:53;;;;;;;5.80;1.30;;;10.50;99.90;;;;;;5034565;28;20030;-83
2022/10/25 04:27:18;;;;;;;3.05;1.38;;;10.50;99.90;;;;;;5034470;28;20027;-83
2022/10/25 04:29:44;;;;;;;1.63;1.20;;;10.40;99.90;;;;;;5034409;28;20033;-83
2022/10/25 04:32:10;;;;;;;4.80;1.50;;;10.50;99.90;;;;;;5034781;28;20101;-83
2022/10/25 04:34:36;;;;;;;2.50;1.00;;;10.40;99.90;;;;;;5034424;28;20455;-83
2022/10/25 04:37:02;;;;;;;2.88;1.20;;;10.40;99.90;;;;;;5034333;28;20040;-83
2022/10/25 04:39:27;;;;;;;3.38;1.15;;;10.40;99.90;;;;;;5033975;28;20029;-83
2022/10/25 04:41:53;;;;;;;2.75;1.52;;;10.40;99.90;;;;;;5034781;28;20037;-83
2022/10/25 04:44:18;;;;;;;2.42;1.20;;;10.40;99.90;;;;;;5034566;28;20433;-82
2022/10/25 04:46:44;;;;;;;2.87;1.20;;;10.40;99.90;;;;;;5034062;28;20030;-83
2022/10/25 04:49:14;;;;;;;3.03;1.23;;;10.30;99.90;;;;;;5034194;28;20096;-80
2022/10/25 04:51:40;;;;;;;2.00;1.35;;;10.30;99.90;;;;;;5033268;28;20025;-85
2022/10/25 04:54:06;;;;;;;6.15;1.30;;;10.30;99.90;;;;;;5033924;28;20021;-84
2022/10/25 04:56:32;;;;;;;3.90;1.38;;;10.30;99.90;;;;;;5034075;28;20075;-85
2022/10/25 04:58:58;;;;;;;3.70;1.42;;;10.20;99.90;;;;;;5033806;28;20100;-84
2022/10/25 05:01:24;;;;;;;3.55;1.20;;;10.30;99.90;;;;;;5033993;28;20033;-85
2022/10/25 05:03:50;;;;;;;3.03;1.30;;;10.20;99.90;;;;;;5033627;28;20033;-85
2022/10/25 05:06:18;;;;;;;3.67;1.00;;;10.20;99.90;;;;;;5034431;28;20095;-85
2022/10/25 05:08:46;;;;;;;2.50;1.33;;;10.20;99.90;;;;;;5033767;28;20026;-85
2022/10/25 05:11:13;;;;;;;1.58;1.00;;;10.20;99.90;;;;;;5033890;28;20171;-85
2022/10/25 05:13:40;;;;;;;4.15;1.33;;;10.20;99.90;;;;;;5033478;28;20390;-85
2022/10/25 05:16:06;;;;;;;2.33;1.40;;;10.20;99.90;;;;;;5033606;28;20037;-85
2022/10/25 05:18:33;;;;;;;8.35;1.52;;;10.20;99.90;;;;;;5033583;28;20057;-85
2022/10/25 05:21:04;;;;;;;3.15;1.40;;;10.20;99.90;;;;;;5033266;28;20388;-85
2022/10/25 05:23:31;;;;;;;3.58;1.20;;;10.30;99.90;;;;;;5033661;28;20029;-84
2022/10/25 05:26:11;;;;;;;3.83;1.48;;;10.30;99.90;;;;;;5032873;28;20083;-82
2022/10/25 05:28:39;;;;;;;6.75;1.25;;;10.30;99.90;;;;;;5032000;28;20430;-83
2022/10/25 05:31:21;;;;;;;3.00;1.27;;;10.30;99.90;;;;;;5033505;28;20485;-83
2022/10/25 05:33:52;;;;;;;6.43;1.20;;;10.30;99.90;;;;;;5033101;28;20083;-83
2022/10/25 05:36:18;;;;;;;3.00;1.40;;;10.30;99.90;;;;;;5033358;28;20037;-83
2022/10/25 05:38:44;;;;;;;3.17;1.30;;;10.30;99.90;;;;;;5033631;28;20455;-83
2022/10/25 05:41:12;;;;;;;4.18;1.13;;;10.20;99.90;;;;;;5032881;28;20055;-83
2022/10/25 05:43:38;;;;;;;3.92;1.60;;;10.30;99.90;;;;;;5033503;28;20037;-83
2022/10/25 05:46:11;;;;;;;2.88;1.48;;;10.30;99.90;;;;;;5033116;28;20029;-83
2022/10/25 05:48:36;;;;;;;5.25;1.30;;;10.30;99.90;;;;;;5033130;28;20039;-83
2022/10/25 05:51:09;;;;;;;2.20;1.35;;;10.40;99.90;;;;;;5031070;28;20037;-83
2022/10/25 05:53:35;;;;;;;2.47;1.30;;;10.30;99.90;;;;;;5033105;28;20029;-83
2022/10/25 05:56:00;;;;;;;3.53;1.40;;;10.40;99.90;;;;;;5033418;28;20451;-83
2022/10/25 05:58:26;;;;;;;2.45;1.23;;;10.40;99.90;;;;;;5033195;28;20022;-83
2022/10/25 06:00:51;;;;;;;3.72;1.20;;;10.40;99.90;;;;;;5033406;28;20025;-82
2022/10/25 06:03:17;;;;;;;5.50;1.10;;;10.50;99.90;;;;;;5032949;28;20512;-83
2022/10/25 06:05:42;;;;;;;5.72;1.40;;;10.50;99.90;;;;;;5033191;28;20324;-83
2022/10/25 06:08:08;;;;;;;3.80;1.30;;;10.50;99.90;;;;;;5032724;28;20033;-82
2022/10/25 06:10:33;;;;;;;5.57;1.30;;;10.50;99.90;;;;;;5032750;28;20100;-83
2022/10/25 06:13:00;;;;;;;6.70;1.40;;;10.50;99.90;;;;;;5033056;28;20029;-83
2022/10/25 06:15:25;;;;;;;5.05;1.83;;;10.50;99.90;;;;;;5033017;28;20021;-83
2022/10/25 06:17:51;;;;;;;7.95;2.20;;;10.50;99.90;;;;;;5032859;28;20030;-83
2022/10/25 06:20:17;;;;;;;4.88;2.28;;;10.50;99.90;;;;;;5032893;28;20108;-83
2022/10/25 06:22:42;;;;;;;4.38;1.60;;;10.50;99.90;;;;;;5032711;28;20026;-83
2022/10/25 06:25:08;;;;;;;4.73;1.67;;;10.40;99.90;;;;;;5033066;28;20029;-83
2022/10/25 06:27:34;;;;;;;6.85;1.70;;;10.40;99.90;;;;;;5033150;28;20029;-83
2022/10/25 06:29:59;;;;;;;3.05;1.50;;;10.40;99.90;;;;;;5031492;28;20134;-82
2022/10/25 06:32:26;;;;;;;3.95;1.52;;;10.30;99.90;;;;;;5032667;28;20057;-83
2022/10/25 06:34:52;;;;;;;3.80;1.42;;;10.30;99.90;;;;;;5032625;28;20068;-82
2022/10/25 06:37:17;;;;;;;3.58;1.52;;;10.30;99.90;;;;;;5032611;28;20053;-83
2022/10/25 06:39:43;;;;;;;3.80;1.30;;;10.20;99.90;;;;;;5032855;28;20041;-83
2022/10/25 06:42:08;;;;;;;4.82;1.38;;;10.20;99.90;;;;;;5033058;28;20037;-83
2022/10/25 06:44:34;;;;;;;4.38;1.60;;;10.20;99.90;;;;;;5032686;28;20037;-82
2022/10/25 06:46:59;;;;;;;4.70;1.40;;;10.10;99.90;;;;;;5032424;28;20025;-83
2022/10/25 06:49:25;;;;;;;5.00;1.63;;;10.20;99.90;;;;;;5031012;28;20371;-83
2022/10/25 06:51:51;;;;;;;3.28;1.70;;;10.20;99.90;;;;;;5032705;28;20109;-83
2022/10/25 06:54:16;;;;;;;4.32;1.73;;;10.20;99.90;;;;;;5032313;28;20037;-83
2022/10/25 06:56:42;;;;;;;4.93;1.80;;;10.20;99.90;;;;;;5032781;28;20029;-83
2022/10/25 06:59:07;;;;;;;6.68;2.20;;;10.30;99.90;;;;;;5033011;28;20036;-82
2022/10/25 07:01:33;;;;;;;6.05;1.70;;;10.30;99.90;;;;;;5032444;28;20092;-83
2022/10/25 07:03:58;;;;;;;6.47;2.90;;;10.30;99.90;;;;;;5036437;28;20028;-82
2022/10/25 07:06:34;;;;;;;5.55;1.95;;;10.40;99.90;;;;;;5035844;28;20104;-82
2022/10/25 07:09:00;;;;;;;5.47;2.17;;;10.40;99.90;;;;;;5036038;28;20056;-82
2022/10/25 07:11:28;;;;;;;7.03;1.80;;;10.50;99.90;;;;;;5035766;28;20041;-82
2022/10/25 07:13:55;;;;;;;8.35;2.25;;;10.50;99.90;;;;;;5036033;28;20038;-82
2022/10/25 07:16:21;;;;;;;4.50;1.70;;;10.60;99.90;;;;;;5035802;28;20466;-83
2022/10/25 07:18:47;;;;;;;7.07;1.90;;;10.60;99.90;;;;;;5035741;28;20033;-83
2022/10/25 07:21:19;;;;;;;3.50;1.55;;;10.70;99.90;;;;;;5035849;28;20071;-83
2022/10/25 07:23:45;;;;;;;5.40;1.92;;;10.80;99.90;;;;;;5035588;28;20049;-83
2022/10/25 07:26:31;;;;;;;5.45;1.50;;;10.90;99.90;;;;;;5035428;28;20029;-82
2022/10/25 07:28:59;;;;;;;3.83;1.75;;;11.00;99.90;;;;;;5035700;28;20478;-83
2022/10/25 07:31:28;;;;;;;5.22;2.28;;;11.10;99.90;;;;;;5027932;28;20427;-78
2022/10/25 07:33:57;;;;;;;2.55;1.30;;;11.20;99.90;;;;;;5030970;28;20032;-83
2022/10/25 07:36:22;;;;;;;4.25;1.60;;;11.40;99.90;;;;;;5035292;28;20033;-83
2022/10/25 07:38:48;;;;;;;6.20;1.80;;;11.60;99.90;;;;;;5035164;28;20021;-83
2022/10/25 07:41:14;;;;;;;2.55;1.60;;;11.70;99.90;;;;;;5034955;28;20076;-83
2022/10/25 07:43:40;;;;;;;6.63;1.67;;;11.90;99.90;;;;;;5035239;28;20029;-83
2022/10/25 07:46:06;;;;;;;4.32;1.45;;;12.10;99.90;;;;;;5035804;28;20032;-83
2022/10/25 07:48:32;;;;;;;7.13;1.80;;;12.20;99.90;;;;;;5035214;28;20068;-83
2022/10/25 07:51:03;;;;;;;4.60;1.20;;;12.40;99.90;;;;;;5035023;28;20070;-84
2022/10/25 07:53:29;;;;;;;3.35;1.20;;;12.50;99.90;;;;;;5034961;28;20087;-83
2022/10/25 07:55:54;;;;;;;4.15;1.30;;;12.70;99.90;;;;;;5035131;28;20030;-83
2022/10/25 07:58:20;;;;;;;3.97;1.58;;;12.70;99.90;;;;;;5034903;28;20021;-84
2022/10/25 08:00:46;;;;;;;3.83;1.40;;;12.80;99.90;;;;;;5034749;28;20447;-83
2022/10/25 08:03:13;;;;;;;5.30;1.60;;;12.80;99.90;;;;;;5034888;28;20076;-84
2022/10/25 08:05:39;;;;;;;6.00;1.50;;;12.90;99.90;;;;;;5034883;28;20091;-83
2022/10/25 08:08:04;;;;;;;4.10;1.63;;;13.00;99.90;;;;;;5035029;28;20033;-83
2022/10/25 08:10:30;;;;;;;4.60;1.30;;;13.00;99.90;;;;;;5035141;28;20036;-83
2022/10/25 08:12:56;;;;;;;2.40;1.30;;;13.10;99.90;;;;;;5035017;28;20516;-83
2022/10/25 08:15:22;;;;;;;6.40;1.55;;;13.20;99.90;;;;;;5033904;28;20178;-83
2022/10/25 08:17:47;;;;;;;6.95;1.63;;;13.20;99.90;;;;;;5034749;28;20096;-84
2022/10/25 08:20:13;;;;;;;5.95;2.10;;;13.30;99.90;;;;;;5034458;28;20025;-84
2022/10/25 08:22:39;;;;;;;4.00;1.80;;;13.30;99.90;;;;;;5035133;28;20025;-83
2022/10/25 08:25:05;;;;;;;4.72;1.65;;;13.50;99.90;;;;;;5034711;28;20484;-84
2022/10/25 08:27:31;;;;;;;3.45;1.60;;;13.60;99.90;;;;;;5034332;28;20040;-84
2022/10/25 08:29:57;;;;;;;2.97;1.77;;;13.70;99.90;;;;;;5034646;28;20071;-84
2022/10/25 08:32:22;;;;;;;4.70;1.40;;;13.80;99.90;;;;;;5034097;28;20033;-84
2022/10/25 08:34:48;;;;;;;4.47;1.70;;;14.00;99.90;;;;;;5034204;28;20128;-84
2022/10/25 08:37:13;;;;;;;5.25;1.58;;;14.10;99.90;;;;;;5034327;28;20018;-84
2022/10/25 08:39:39;;;;;;;3.58;1.40;;;14.20;99.90;;;;;;5033559;28;20029;-88
2022/10/25 08:42:05;;;;;;;4.10;1.42;;;14.30;99.90;;;;;;5034381;28;20032;-89
2022/10/25 08:44:53;;;;;;;3.22;1.25;;;14.40;99.90;;;;;;5033551;28;20076;-88
2022/10/25 08:47:42;;;;;;;2.03;1.05;;;14.60;99.90;;;;;;5033205;28;20177;-88
2022/10/25 08:50:21;;;;;;;3.70;1.05;;;14.70;99.90;;;;;;5033884;28;20076;-89
2022/10/25 08:52:54;;;;;;;3.03;1.20;;;14.90;99.90;;;;;;5033399;28;20075;-88
2022/10/25 08:55:35;;;;;;;2.38;1.15;;;14.90;99.90;;;;;;5033514;28;20451;-88
2022/10/25 08:58:04;;;;;;;7.88;1.15;;;15.10;99.90;;;;;;5033527;28;20100;-88
2022/10/25 09:00:36;;;;;;;2.97;1.10;;;15.20;99.90;;;;;;5033699;28;20105;-88
2022/10/25 09:03:03;;;;;;;4.13;1.17;;;15.30;99.90;;;;;;5033766;28;20443;-88
2022/10/25 09:05:39;;;;;;;3.33;1.10;;;15.30;99.90;;;;;;5033529;28;20106;-88
2022/10/25 09:08:31;;;;;;;5.35;1.23;;;15.30;99.90;;;;;;5033696;28;20025;-89
2022/10/25 09:11:21;;;;;;;5.40;1.23;;;15.20;99.90;;;;;;5033555;28;20025;-88
2022/10/25 09:14:13;;;;;;;2.22;1.00;;;15.20;99.90;;;;;;5033683;28;20115;-89
2022/10/25 09:16:53;;;;;;;3.25;1.08;;;15.20;99.90;;;;;;5033608;28;20025;-88
2022/10/25 09:19:38;;;;;;;3.10;1.10;;;15.30;99.90;;;;;;5033577;28;20033;-89
2022/10/25 09:22:24;;;;;;;2.72;1.17;;;15.30;99.90;;;;;;5033528;28;20120;-89
2022/10/25 09:24:55;;;;;;;4.30;1.10;;;15.40;99.90;;;;;;5033255;28;20025;-89
2022/10/25 09:27:45;;;;;;;6.30;1.40;;;15.40;99.90;;;;;;5033012;28;20450;-88
2022/10/25 09:30:12;;;;;;;3.75;1.20;;;15.50;99.90;;;;;;5029897;28;20028;-89
2022/10/25 09:33:09;;;;;;;1.60;1.17;;;15.60;99.90;;;;;;5032876;28;20659;-89
2022/10/25 09:35:43;;;;;;;4.35;1.35;;;15.70;99.90;;;;;;5031018;28;20112;-89
2022/10/25 09:38:35;;;;;;;3.42;1.27;;;15.90;99.90;;;;;;5033137;28;20429;-89
2022/10/25 09:41:05;;;;;;;4.85;1.13;;;16.00;99.90;;;;;;5033580;28;20053;-88
2022/10/25 09:44:03;;;;;;;3.58;1.10;;;16.10;99.90;;;;;;5033372;28;20026;-88
2022/10/25 09:47:12;;;;;;;2.42;1.02;;;16.30;99.90;;;;;;5025121;28;20049;-89
2022/10/25 09:49:47;;;;;;;3.70;1.20;;;16.30;99.90;;;;;;4991617;28;20142;-88
2022/10/25 09:52:56;;;;;;;5.13;1.23;;;16.30;99.90;;;;;;5027532;28;20758;-89
2022/10/25 09:55:43;;;;;;;2.80;1.20;;;16.40;99.90;;;;;;5032981;28;20374;-89
2022/10/25 09:58:22;;;;;;;5.03;1.20;;;16.50;99.90;;;;;;5033443;28;20017;-88
2022/10/25 10:00:50;;;;;;;3.30;1.27;;;16.50;99.90;;;;;;5033111;28;20030;-89
2022/10/25 10:03:16;;;;;;;4.25;1.10;;;16.50;99.90;;;;;;5033176;28;20025;-88
2022/10/25 10:05:56;;;;;;;6.65;1.13;;;16.60;99.90;;;;;;5032790;28;20486;-88
2022/10/25 10:08:23;;;;;;;3.95;1.10;;;16.60;99.90;;;;;;5032755;28;20084;-88
2022/10/25 10:10:50;;;;;;;3.70;0.93;;;16.70;99.90;;;;;;5033247;28;20034;-88
2022/10/25 10:13:39;;;;;;;3.25;1.10;;;16.70;99.90;;;;;;5032714;28;20030;-89
2022/10/25 10:16:21;;;;;;;5.40;1.10;;;16.80;99.90;;;;;;5032379;28;20030;-88
2022/10/25 10:18:47;;;;;;;3.28;1.15;;;16.80;99.90;;;;;;5033386;28;20018;-88
2022/10/25 10:21:19;;;;;;;3.20;1.20;;;16.90;99.90;;;;;;5033068;28;20021;-88
2022/10/25 10:24:04;;;;;;;3.03;1.00;;;16.90;99.90;;;;;;5033063;28;20036;-89
2022/10/25 10:26:34;;;;;;;3.78;1.23;;;17.10;99.90;;;;;;5032963;28;20045;-89
2022/10/25 10:29:35;;;;;;;5.55;1.58;;;17.20;99.90;;;;;;5033020;28;20029;-88
2022/10/25 10:32:05;;;;;;;4.20;1.13;;;17.20;99.90;;;;;;5012098;28;20438;-88
2022/10/25 10:34:49;;;;;;;4.10;1.15;;;17.20;99.90;;;;;;5013308;28;20030;-89
2022/10/25 10:37:16;;;;;;;5.00;1.10;;;17.40;99.90;;;;;;5027419;28;20041;-89
2022/10/25 10:39:50;;;;;;;2.20;0.90;;;17.50;99.90;;;;;;5036212;28;20377;-89
2022/10/25 10:42:23;;;;;;;3.25;1.17;;;17.50;99.90;;;;;;5036776;28;20021;-89
2022/10/25 10:45:12;;;;;;;4.22;1.00;;;17.60;99.90;;;;;;5036294;28;20029;-89
2022/10/25 10:47:54;;;;;;;2.58;0.90;;;17.50;99.90;;;;;;5030730;28;20045;-88
2022/10/25 10:50:24;;;;;;;1.88;1.00;;;17.40;99.90;;;;;;5036416;28;20045;-89
2022/10/25 10:53:00;;;;;;;1.60;0.80;;;17.40;99.90;;;;;;5036349;28;20025;-89
2022/10/25 10:55:30;;;;;;;2.92;1.00;;;17.20;99.90;;;;;;5036620;28;20032;-88
2022/10/25 10:58:21;;;;;;;3.28;0.90;;;17.00;99.90;;;;;;5036222;28;20020;-89
2022/10/25 11:00:52;;;;;;;2.85;0.98;;;16.90;99.90;;;;;;5035845;28;20119;-89
2022/10/25 11:03:41;;;;;;;2.70;1.08;;;16.80;99.90;;;;;;5036309;28;20374;-81
2022/10/25 11:06:13;;;;;;;2.65;0.90;;;17.00;99.90;;;;;;5035972;28;20017;-81
2022/10/25 11:08:40;;;;;;;3.70;0.98;;;17.30;99.90;;;;;;5035669;28;20510;-81
2022/10/25 11:11:13;;;;;;;3.70;0.93;;;17.40;99.90;;;;;;5035520;28;20037;-82
2022/10/25 11:13:40;;;;;;;2.20;0.90;;;17.60;99.90;;;;;;5035408;28;20079;-81
2022/10/25 11:16:06;;;;;;;3.55;1.00;;;17.80;99.90;;;;;;5035239;28;20025;-82
2022/10/25 11:18:44;;;;;;;3.05;1.00;;;18.10;99.90;;;;;;5035025;28;20387;-81
2022/10/25 11:21:32;;;;;;;4.40;1.00;;;18.30;99.90;;;;;;5034995;28;20021;-82
2022/10/25 11:24:16;;;;;;;5.72;1.25;;;18.60;99.90;;;;;;5034773;28;20045;-81
2022/10/25 11:26:48;;;;;;;2.67;1.02;;;18.70;99.90;;;;;;5035013;28;20264;-81
2022/10/25 11:29:36;;;;;;;2.65;1.10;;;18.70;99.90;;;;;;5035009;28;20139;-81
2022/10/25 11:32:13;;;;;;;3.35;0.88;;;18.80;99.90;;;;;;5021734;28;20524;-82
2022/10/25 11:34:45;;;;;;;4.55;1.45;;;18.80;99.90;;;;;;5014901;28;20037;-81
2022/10/25 11:37:32;;;;;;;2.78;1.00;;;19.10;99.90;;;;;;5014437;28;20105;-81
2022/10/25 11:40:17;;;;;;;2.03;1.10;;;19.10;99.90;;;;;;5014714;28;20053;-81
2022/10/25 11:42:55;;;;;;;4.45;1.00;;;19.20;99.90;;;;;;5015109;28;20378;-81
2022/10/25 11:45:29;;;;;;;2.45;0.90;;;19.30;99.90;;;;;;5015007;28;20022;-81
2022/10/25 11:48:14;;;;;;;3.35;1.00;;;19.30;99.90;;;;;;5014263;28;20463;-82
2022/10/25 11:50:51;;;;;;;2.20;1.02;;;19.40;99.90;;;;;;5014038;28;20022;-81
2022/10/25 11:53:34;;;;;;;2.95;0.98;;;19.40;99.90;;;;;;5014684;28;20030;-81
2022/10/25 11:56:12;;;;;;;2.53;0.95;;;19.60;99.90;;;;;;5026963;28;20021;-80
2022/10/25 11:59:10;;;;;;;3.95;0.90;;;19.80;99.90;;;;;;5025277;28;20426;-80
2022/10/25 12:02:03;;;;;;;1.67;0.90;;;19.90;99.90;;;;;;5025905;28;20363;-80
2022/10/25 12:04:43;;;;;;;5.07;1.10;;;19.90;99.90;;;;;;5026447;28;20571;-79
2022/10/25 12:07:14;;;;;;;7.00;1.30;;;20.10;99.90;;;;;;5024965;28;20029;-80
2022/10/25 12:09:51;;;;;;;3.42;1.00;;;20.10;99.90;;;;;;5024987;28;20355;-80
2022/10/25 12:12:22;;;;;;;2.60;1.10;;;19.90;99.90;;;;;;5023834;28;20107;-80
2022/10/25 12:14:56;;;;;;;3.78;1.13;;;19.80;99.90;;;;;;5026864;28;20057;-81
2022/10/25 12:17:28;;;;;;;3.33;1.03;;;19.70;99.90;;;;;;5030916;28;20072;-81
2022/10/25 12:19:58;;;;;;;3.13;0.80;;;19.50;99.90;;;;;;5030756;28;20021;-81
2022/10/25 12:22:34;;;;;;;2.30;0.88;;;19.40;99.90;;;;;;5031712;28;20104;-81
2022/10/25 12:25:25;;;;;;;4.55;1.33;;;19.40;99.90;;;;;;5031033;28;20121;-81
2022/10/25 12:28:10;;;;;;;5.30;1.20;;;19.60;99.90;;;;;;5028219;28;20046;-81
2022/10/25 12:30:38;;;;;;;3.90;0.85;;;19.60;99.90;;;;;;5028704;28;20382;-81
2022/10/25 12:33:24;;;;;;;3.55;1.10;;;19.70;99.90;;;;;;5029823;28;20040;-81
2022/10/25 12:35:53;;;;;;;2.75;1.08;;;19.70;99.90;;;;;;5030039;28;20393;-81
2022/10/25 12:38:32;;;;;;;3.13;1.00;;;19.70;99.90;;;;;;5030404;28;20033;-81
2022/10/25 12:41:16;;;;;;;4.30;0.98;;;19.70;99.90;;;;;;5029244;28;20041;-81
2022/10/25 12:43:47;;;;;;;3.10;0.80;;;19.70;99.90;;;;;;5030758;28;20044;-81
2022/10/25 12:46:46;;;;;;;2.70;1.17;;;19.70;99.90;;;;;;5024753;28;20058;-81
2022/10/25 12:49:26;;;;;;;2.85;1.00;;;19.90;99.90;;;;;;5008108;28;20044;-77
2022/10/25 12:52:10;;;;;;;3.80;1.33;;;19.90;99.90;;;;;;4995660;28;20033;-77
2022/10/25 12:54:47;;;;;;;2.50;0.80;;;20.00;99.90;;;;;;4990479;28;20664;-77
2022/10/25 12:57:18;;;;;;;2.53;0.82;;;20.00;99.90;;;;;;4998079;28;20029;-78
2022/10/25 12:59:53;;;;;;;4.25;0.88;;;19.90;99.90;;;;;;4995867;28;20037;-86
2022/10/25 13:02:41;;;;;;;2.25;1.00;;;20.00;99.90;;;;;;5003921;28;20075;-80
2022/10/25 13:05:24;;;;;;;4.00;1.00;;;20.00;99.90;;;;;;5022444;28;20087;-80
2022/10/25 13:07:53;;;;;;;4.85;0.90;;;19.80;99.90;;;;;;5030628;28;20044;-80
2022/10/25 13:10:21;;;;;;;3.20;0.98;;;19.60;99.90;;;;;;5030695;28;20032;-81